Aérodrome :
LOGIN :

S'inscrire | Disclaimer

   EN    FR    IT 

 










Légende :    VFR   VFR Marginal   IFR   IFR Intensif   IFR Très Intensif
Visi : 
Plafond : 
>= 8 km
>= 3000ft
5 à 8 km
1000 à 3000 ft
1500m à 5 km
500 à 1000 ft
800 à 1500m
200 à 500 ft
< 800m
< 200 ft
Symboles :   Orages  Brouillard  Fortes neiges  Fortes précipitations  Vent > 20 kt
SIGMETs :   Divers  Orages  Givrage  Turbulence  Onde Orograph.  Cendres Volcan.







- Altitude de l'aérodrome : 1411 ft
- Code IATA : SZG


LOWS - Salzburg

DERNIER METAR :
  • 102050Z 27009KT 220V310 9999 -SHRASN FEW010 SCT017 BKN033 FEW035CB 03/M01 Q1018 TEMPO 4000 SHSN BKN012

METARs EXPIRÉS :
  • 102020Z 28008KT 9999 FEW010 SCT017 BKN033 03/M01 Q1018 TEMPO 4000 SHRASN
  • 101950Z 28009KT 240V310 9999 -SHRASN FEW015 SCT020 BKN050 04/M02 Q1018 TEMPO SHRASN
  • 101920Z 27010KT 9999 FEW015 SCT030 BKN060 04/M01 Q1018 TEMPO SHRASN
  • 101850Z 27010KT 240V310 9999 FEW012 SCT026 BKN060 03/M01 Q1018 TEMPO SHRASN
  • 101820Z 27010KT 230V300 9999 FEW010 SCT023 BKN055 03/M01 Q1019 NOSIG
  • 101750Z 26004KT 200V330 9999 FEW009 SCT017 BKN040 02/00 Q1019 NOSIG

TAF TAF LOWS
Valide du 10 à 18h jusqu'au 11 à 18h UTC


101715Z 1018/1118 28010KT 9999 FEW008 SCT025 BKN040 TX03/1018Z TN01/1104Z
TEMPO 1018/1112 29015G30KT 1200 SHSN BKN008
PROB30
TEMPO 1018/1022 TSSN BKN008 FEW015CB
BECMG 1020/1022 -SN
BECMG 1112/1114 NSW
TEMPO 1112/1118 29012G22KT -SHSN
Pas de NOTAMs connus pour ce terrain.



MET'MAP, la Météo Aéronautique d'un coup d'oeil ! - Copyright ORBIFLY Décembre 2007 - Disclaimer

ORBIFLY MET'MAP TEAM :

Programmation & Développement : Alexandra Zaïnal
Conception & Développement : Baudouin d'Aumeries
Co-Programmation & Développement : Marc-Olivier Méhu
Soutien technique & logistique : Manuel Goepfert

Contact : metmap@orbifly.com




SOURCES & CREDITS :

   NOAA